Archival Weather

Chicago O'Hare International

Chicago, Illinois (KORD)

Report from: Thursday, March 21, 2024 1:51 PM CDT
Current time: Tuesday, May 21, 2024 11:37 AM CDT

Current weather – Weather history – Daily summaries
Weather forecast

Temperature3.9°C (39.0°F)
Dew point-8.9°C (16.0°F)
Winds Calm
Visibility10 mi. (16.1 km)
Clouds Scattered clouds 5,000 ft. (1,524 m)
Ceiling: Overcast 9,000 ft. (2,743 m)
Altimeter30.29 in.Hg (1026 mB)
Relative humidity39 %
Density altitude-1,733 ft. (-528 m)
Sea-level pressure102.6 kPa (1026 mB, 30.31 in.Hg)
Remarks System requires maintenance
Automated weather observing station with precipitation discriminator
Flight conditions Visual Meteorological Conditions
Raw dataKORD 211851Z 00000KT 10SM SCT050 OVC090 04/M09 A3029 RMK AO2 SLP263 T00391089 $
An error has occurred. This application may no longer respond until reloaded. Reload 🗙